createdAt,value
2019-05-06T00:02:01.823Z,22.47
2019-05-06T00:04:30.468Z,18.27
2019-05-06T00:06:59.036Z,23.43
2019-05-06T00:09:27.692Z,16.00
2019-05-06T00:11:56.356Z,20.63
2019-05-06T00:14:25.053Z,25.23
2019-05-06T00:17:14.617Z,19.60
2019-05-06T00:19:44.767Z,18.87
2019-05-06T00:22:14.188Z,18.27
2019-05-06T00:24:47.286Z,22.73
2019-05-06T00:27:20.521Z,16.77
2019-05-06T00:29:49.085Z,18.50
2019-05-06T00:32:17.829Z,18.03
2019-05-06T00:34:46.488Z,25.43
2019-05-06T00:37:15.107Z,21.03
2019-05-06T00:39:54.528Z,15.00
2019-05-06T00:42:30.535Z,29.60
2019-05-06T00:45:01.007Z,21.07
2019-05-06T00:47:29.710Z,25.10
2019-05-06T00:49:58.356Z,21.10
2019-05-06T00:52:27.158Z,19.13
2019-05-06T00:54:55.802Z,21.20
2019-05-06T00:57:26.094Z,17.83
2019-05-06T00:59:54.740Z,10.87
2019-05-06T01:02:23.539Z,17.80
2019-05-06T01:04:54.125Z,16.80
2019-05-06T01:07:23.655Z,20.73
2019-05-06T01:09:54.189Z,16.17
2019-05-06T01:12:23.976Z,17.00
2019-05-06T01:14:54.670Z,23.23
2019-05-06T01:17:24.379Z,18.47
2019-05-06T01:19:54.096Z,21.43
2019-05-06T01:22:24.637Z,23.13
2019-05-06T01:24:55.703Z,17.27
2019-05-06T01:27:24.142Z,16.97
2019-05-06T01:29:54.437Z,16.07
2019-05-06T01:32:24.670Z,25.60
2019-05-06T01:34:53.827Z,24.07
2019-05-06T01:37:23.976Z,18.03
2019-05-06T01:40:04.092Z,21.30
2019-05-06T01:42:46.498Z,26.00
2019-05-06T01:45:15.251Z,20.40
2019-05-06T01:47:43.895Z,20.10
2019-05-06T01:50:14.009Z,17.53
2019-05-06T01:52:44.310Z,21.00
2019-05-06T01:55:14.192Z,23.27
2019-05-06T01:57:44.439Z,15.77
2019-05-06T02:00:14.181Z,15.17
2019-05-06T02:02:43.874Z,21.57
2019-05-06T02:05:13.848Z,21.80
2019-05-06T02:07:44.120Z,20.57
2019-05-06T02:10:14.151Z,25.37
2019-05-06T02:12:44.370Z,24.63
2019-05-06T02:15:14.603Z,32.80
2019-05-06T02:17:44.084Z,22.57
2019-05-06T02:20:13.795Z,27.47
2019-05-06T02:22:56.235Z,26.00
2019-05-06T02:25:29.690Z,23.60
2019-05-06T02:27:58.347Z,22.47
2019-05-06T02:30:31.319Z,20.23
2019-05-06T02:33:07.665Z,26.70
2019-05-06T02:35:45.415Z,25.83
2019-05-06T02:38:30.349Z,21.47
2019-05-06T02:40:55.178Z,24.27
2019-05-06T02:43:23.855Z,36.87
2019-05-06T02:45:53.182Z,25.17
2019-05-06T02:48:43.020Z,26.20
2019-05-06T02:51:13.391Z,29.73
2019-05-06T02:53:43.058Z,29.67
2019-05-06T02:56:13.346Z,32.53
2019-05-06T02:58:43.688Z,26.60
2019-05-06T03:01:13.539Z,26.83
2019-05-06T03:03:43.550Z,23.90
2019-05-06T03:06:13.278Z,20.47
2019-05-06T03:08:43.517Z,27.70
2019-05-06T03:11:13.523Z,21.90
2019-05-06T03:13:43.764Z,23.93
2019-05-06T03:16:14.243Z,31.33
2019-05-06T03:18:43.483Z,22.73
2019-05-06T03:21:14.117Z,63.93
2019-05-06T03:23:47.527Z,36.37
2019-05-06T03:26:16.199Z,32.70
2019-05-06T03:28:44.822Z,25.77
2019-05-06T03:31:16.496Z,15.53
2019-05-06T03:33:58.383Z,23.23
2019-05-06T03:36:24.166Z,24.00
2019-05-06T03:38:44.532Z,36.10
2019-05-06T03:41:13.922Z,28.57
2019-05-06T03:43:43.672Z,24.23
2019-05-06T03:46:14.441Z,23.17
2019-05-06T03:48:47.539Z,17.33
2019-05-06T03:51:16.255Z,19.90
2019-05-06T03:53:45.597Z,18.63
2019-05-06T03:56:19.736Z,20.20
2019-05-06T03:58:46.122Z,10.23
2019-05-06T04:01:16.843Z,15.00
2019-05-06T04:03:52.024Z,14.27
2019-05-06T04:06:15.855Z,17.17
2019-05-06T04:08:44.994Z,17.83
2019-05-06T04:11:15.757Z,18.97
2019-05-06T04:13:45.612Z,15.23
2019-05-06T04:16:18.929Z,16.50
2019-05-06T04:19:04.373Z,19.07
2019-05-06T04:21:43.432Z,13.97
2019-05-06T04:24:16.032Z,13.97
2019-05-06T04:26:53.513Z,18.70
2019-05-06T04:29:24.107Z,18.27
2019-05-06T04:31:54.060Z,13.60
2019-05-06T04:34:23.512Z,18.70
2019-05-06T04:36:53.425Z,15.73
2019-05-06T04:39:23.451Z,27.20
2019-05-06T04:41:53.878Z,16.50
2019-05-06T04:44:23.861Z,14.80
2019-05-06T04:46:54.358Z,19.57
2019-05-06T04:49:23.904Z,20.27
2019-05-06T04:51:54.176Z,24.60
2019-05-06T04:54:26.499Z,37.23
2019-05-06T04:56:53.926Z,30.03
2019-05-06T04:59:23.297Z,33.70
2019-05-06T05:01:53.518Z,30.03
2019-05-06T05:04:31.136Z,36.20
2019-05-06T05:06:53.019Z,37.63
2019-05-06T05:09:23.050Z,30.57
2019-05-06T05:11:53.954Z,27.80
2019-05-06T05:14:26.980Z,29.20
2019-05-06T05:16:57.325Z,33.60
2019-05-06T05:19:27.228Z,37.67
2019-05-06T05:21:57.510Z,38.77
2019-05-06T05:24:26.147Z,42.97
2019-05-06T05:26:54.823Z,36.20
2019-05-06T05:29:23.476Z,42.77
2019-05-06T05:31:52.960Z,35.40
2019-05-06T05:34:22.430Z,36.13
2019-05-06T05:36:52.222Z,35.97
2019-05-06T05:39:22.289Z,34.57
2019-05-06T05:41:52.215Z,28.57
2019-05-06T05:44:35.029Z,24.40
2019-05-06T05:47:03.657Z,18.87
2019-05-06T05:49:34.267Z,22.10
2019-05-06T05:52:03.546Z,30.57
2019-05-06T05:54:33.280Z,25.53
2019-05-06T05:57:03.354Z,27.13
2019-05-06T05:59:32.987Z,25.20
2019-05-06T06:02:03.789Z,22.40
2019-05-06T06:04:32.403Z,33.07
2019-05-06T06:07:02.719Z,21.57
2019-05-06T06:09:33.416Z,22.13
2019-05-06T06:12:03.629Z,26.73
2019-05-06T06:14:44.427Z,18.03
2019-05-06T06:17:27.009Z,20.37
2019-05-06T06:20:03.011Z,18.00
2019-05-06T06:22:33.081Z,13.23
2019-05-06T06:25:04.250Z,10.37
2019-05-06T06:27:33.856Z,15.77
2019-05-06T06:30:02.629Z,16.37
2019-05-06T06:32:32.563Z,19.43
2019-05-06T06:35:14.653Z,16.77
2019-05-06T06:37:44.458Z,14.97
2019-05-06T06:40:15.029Z,11.77
2019-05-06T06:42:45.320Z,26.70
2019-05-06T06:45:14.031Z,12.77
2019-05-06T06:47:42.718Z,16.37
2019-05-06T06:50:12.580Z,12.70
2019-05-06T06:52:42.165Z,9.80
2019-05-06T06:55:13.001Z,14.50
2019-05-06T06:57:59.993Z,14.90
2019-05-06T07:00:33.684Z,11.27
2019-05-06T07:03:04.891Z,14.50
2019-05-06T07:05:52.769Z,11.50
2019-05-06T07:08:33.888Z,11.83
2019-05-06T07:10:52.513Z,13.80
2019-05-06T07:13:23.156Z,8.63
2019-05-06T07:15:52.164Z,16.03
2019-05-06T07:18:22.582Z,15.03
2019-05-06T07:21:06.301Z,14.87
2019-05-06T07:23:36.836Z,12.77
2019-05-06T07:26:05.482Z,17.97
2019-05-06T07:28:34.130Z,14.70
2019-05-06T07:31:17.520Z,18.23
2019-05-06T07:33:33.708Z,13.57
2019-05-06T07:36:02.617Z,14.50
2019-05-06T07:38:32.542Z,21.43
2019-05-06T07:41:04.618Z,10.60
2019-05-06T07:43:37.896Z,11.27
2019-05-06T07:46:23.361Z,10.60
2019-05-06T07:48:51.878Z,9.13
2019-05-06T07:51:20.777Z,8.87
2019-05-06T07:53:49.432Z,10.37
2019-05-06T08:30:33.539Z,14.50
2019-05-06T08:33:02.903Z,14.30
2019-05-06T08:35:33.146Z,6.00
2019-05-06T08:38:02.367Z,6.37
2019-05-06T08:40:32.175Z,17.20
2019-05-06T08:43:02.211Z,7.13
2019-05-06T08:45:32.474Z,10.97
2019-05-06T08:48:02.959Z,16.10
2019-05-06T08:50:52.871Z,8.20
2019-05-06T08:53:38.292Z,9.60
2019-05-06T08:56:08.521Z,13.80
2019-05-06T08:58:47.087Z,10.67
2019-05-06T09:01:28.834Z,13.27
2019-05-06T09:04:08.712Z,9.63
2019-05-06T09:06:31.558Z,13.27
2019-05-06T09:08:58.265Z,8.57
2019-05-06T09:11:27.311Z,10.00
2019-05-06T09:13:56.036Z,7.83
2019-05-06T09:16:24.682Z,20.77
2019-05-06T09:18:53.524Z,9.70
2019-05-06T09:21:22.722Z,16.40
2019-05-06T09:23:53.124Z,5.00
2019-05-06T09:26:35.743Z,5.43
2019-05-06T09:29:06.213Z,11.30
2019-05-06T09:31:39.169Z,12.87
2019-05-06T09:34:23.353Z,8.07
2019-05-06T09:37:09.881Z,6.57
2019-05-06T09:39:38.513Z,3.53
2019-05-06T09:42:07.158Z,5.80
2019-05-06T09:44:35.806Z,7.37
2019-05-06T09:47:06.400Z,6.60
2019-05-06T09:49:42.766Z,4.90
2019-05-06T09:52:12.960Z,6.37
2019-05-06T09:54:49.260Z,9.30
2019-05-06T09:57:22.308Z,3.93
2019-05-06T09:59:52.747Z,6.13
2019-05-06T10:02:23.168Z,5.43
2019-05-06T10:04:52.340Z,19.13
2019-05-06T10:07:22.543Z,6.63
2019-05-06T10:09:52.576Z,5.30
2019-05-06T10:12:21.506Z,5.23
2019-05-06T10:14:52.967Z,6.60
2019-05-06T10:17:21.111Z,7.57
2019-05-06T10:19:49.803Z,5.50
2019-05-06T10:22:18.441Z,6.30
2019-05-06T10:24:47.116Z,7.80
2019-05-06T10:27:15.783Z,8.37
2019-05-06T10:29:55.343Z,9.03
2019-05-06T10:32:42.686Z,4.63
2019-05-06T10:35:13.120Z,6.67
2019-05-06T10:37:47.688Z,20.90
2019-05-06T10:40:22.762Z,7.77
2019-05-06T10:43:18.873Z,5.57
2019-05-06T10:45:47.515Z,5.60
2019-05-06T10:48:16.170Z,4.47
2019-05-06T10:50:46.428Z,4.47
2019-05-06T10:53:16.710Z,6.20
2019-05-06T10:55:59.337Z,2.40
2019-05-06T10:58:27.977Z,9.17
2019-05-06T11:01:03.457Z,7.43
2019-05-06T11:03:33.065Z,9.37
2019-05-06T11:06:02.594Z,5.63
2019-05-06T11:08:32.617Z,7.97
2019-05-06T11:11:14.835Z,5.67
2019-05-06T11:13:32.283Z,7.47
2019-05-06T11:16:03.396Z,5.73
2019-05-06T11:18:33.430Z,5.63
2019-05-06T11:21:03.444Z,4.03
2019-05-06T11:23:33.784Z,9.63
2019-05-06T11:26:03.200Z,8.90
2019-05-06T11:28:48.668Z,7.30
2019-05-06T11:31:37.114Z,9.53
2019-05-06T11:34:16.653Z,5.53
2019-05-06T11:36:46.920Z,7.77
2019-05-06T11:39:15.559Z,6.43
2019-05-06T11:42:01.656Z,7.30
2019-05-06T11:44:16.003Z,4.53
2019-05-06T11:46:44.630Z,4.07
2019-05-06T11:49:13.271Z,8.57
2019-05-06T11:51:43.503Z,6.40
2019-05-06T11:54:17.504Z,5.53
2019-05-06T11:56:51.324Z,10.90
2019-05-06T11:59:14.764Z,5.23
2019-05-06T12:01:45.180Z,4.17
2019-05-06T12:04:14.068Z,4.70
2019-05-06T12:06:42.871Z,3.60
2019-05-06T12:09:16.443Z,5.10
2019-05-06T12:11:43.231Z,5.03
2019-05-06T12:14:12.474Z,4.87
2019-05-06T12:16:41.457Z,3.60
2019-05-06T12:19:10.145Z,7.40
2019-05-06T12:21:38.695Z,6.43
2019-05-06T12:24:07.353Z,6.70
2019-05-06T12:26:35.992Z,5.57
2019-05-06T12:29:04.688Z,4.77
2019-05-06T12:31:33.395Z,5.97
2019-05-06T12:34:02.768Z,4.77
2019-05-06T12:36:32.599Z,5.70
2019-05-06T12:39:17.672Z,8.03
2019-05-06T12:41:47.222Z,6.63
2019-05-06T12:44:15.868Z,7.93
2019-05-06T12:47:03.403Z,6.73
2019-05-06T12:49:32.705Z,10.97
2019-05-06T12:52:01.460Z,5.37
2019-05-06T12:54:30.142Z,8.23
2019-05-06T12:56:59.520Z,6.33
2019-05-06T12:59:28.248Z,5.57
2019-05-06T13:01:57.031Z,7.87
2019-05-06T13:04:48.498Z,8.27
2019-05-06T13:06:56.024Z,7.07
2019-05-06T13:09:24.723Z,7.37
2019-05-06T13:11:54.062Z,7.50
2019-05-06T13:14:22.696Z,6.93
2019-05-06T13:16:53.273Z,7.00
2019-05-06T13:19:22.807Z,5.43
2019-05-06T13:21:51.700Z,6.87
2019-05-06T13:24:22.818Z,5.00
2019-05-06T13:26:52.796Z,7.77
2019-05-06T13:29:24.382Z,5.63
2019-05-06T13:31:53.248Z,6.67
2019-05-06T13:34:23.501Z,5.83
2019-05-06T13:36:53.244Z,5.47
2019-05-06T13:39:23.679Z,11.07
2019-05-06T13:41:53.011Z,4.67
2019-05-06T13:44:22.815Z,6.97
2019-05-06T13:46:53.407Z,8.13
2019-05-06T13:49:38.936Z,4.73
2019-05-06T13:52:08.654Z,5.53
2019-05-06T13:54:37.435Z,6.53
2019-05-06T13:57:06.041Z,14.40
2019-05-06T13:59:36.152Z,9.77
2019-05-06T14:02:15.995Z,5.13
2019-05-06T14:04:44.236Z,6.00
2019-05-06T14:07:13.316Z,5.60
2019-05-06T14:09:43.597Z,8.97
2019-05-06T14:12:12.399Z,8.33
2019-05-06T14:14:43.157Z,14.80
2019-05-06T14:17:12.728Z,6.77
2019-05-06T14:19:42.911Z,8.03
2019-05-06T14:22:12.489Z,10.47
2019-05-06T14:24:43.311Z,9.40
2019-05-06T14:27:12.651Z,7.40
2019-05-06T14:29:42.918Z,7.97
2019-05-06T14:32:12.318Z,13.90
2019-05-06T14:34:43.347Z,10.00
2019-05-06T14:37:12.167Z,5.17
2019-05-06T14:39:59.561Z,8.47
2019-05-06T14:42:25.654Z,21.03
2019-05-06T14:44:54.347Z,11.40
2019-05-06T14:47:24.612Z,9.10
2019-05-06T14:49:53.281Z,5.83
2019-05-06T14:52:22.654Z,8.17
2019-05-06T14:54:55.986Z,5.87
2019-05-06T14:57:25.473Z,4.40
2019-05-06T14:59:55.575Z,5.83
2019-05-06T15:02:27.148Z,6.50
2019-05-06T15:04:56.022Z,8.47
2019-05-06T15:07:24.794Z,5.07
2019-05-06T15:10:02.544Z,4.87
2019-05-06T15:12:23.880Z,7.50
2019-05-06T15:14:52.935Z,6.20
2019-05-06T15:17:22.850Z,4.63
2019-05-06T15:19:52.561Z,7.87
2019-05-06T15:22:22.662Z,10.13
2019-05-06T15:24:53.710Z,8.70
2019-05-06T15:27:22.750Z,4.70
2019-05-06T15:29:54.007Z,9.37
2019-05-06T15:32:24.326Z,6.60
2019-05-06T15:34:56.263Z,8.10
2019-05-06T15:37:26.598Z,7.40
2019-05-06T15:39:55.242Z,8.47
2019-05-06T15:42:23.971Z,12.77
2019-05-06T15:44:52.610Z,7.37
2019-05-06T15:47:22.670Z,14.23
2019-05-06T15:49:52.643Z,7.57
2019-05-06T15:52:23.542Z,7.87
2019-05-06T15:54:52.486Z,9.13
2019-05-06T15:57:22.857Z,10.37
2019-05-06T15:59:52.916Z,9.43
2019-05-06T16:02:23.363Z,8.07
2019-05-06T16:04:52.258Z,10.33
2019-05-06T16:07:24.915Z,7.87
2019-05-06T16:09:54.983Z,10.87
2019-05-06T16:12:22.109Z,11.20
2019-05-06T16:14:53.133Z,6.87
2019-05-06T16:17:23.607Z,9.73
2019-05-06T16:19:51.605Z,9.77
2019-05-06T16:22:22.413Z,8.97
2019-05-06T16:24:54.973Z,7.37
2019-05-06T16:27:23.637Z,5.50
2019-05-06T16:29:52.969Z,7.37
2019-05-06T16:32:22.046Z,7.20
2019-05-06T16:34:52.452Z,8.13
2019-05-06T16:37:22.285Z,5.07
2019-05-06T16:39:54.154Z,10.43
2019-05-06T16:42:22.420Z,4.53
2019-05-06T16:44:52.694Z,8.47
2019-05-06T16:47:23.202Z,5.47
2019-05-06T16:49:53.114Z,9.50
2019-05-06T16:52:22.442Z,6.33
2019-05-06T16:54:52.107Z,2.97
2019-05-06T16:57:23.805Z,5.63
2019-05-06T16:59:52.442Z,4.60
2019-05-06T17:02:23.886Z,2.87
2019-05-06T17:05:12.471Z,4.63
2019-05-06T17:07:42.236Z,6.53
2019-05-06T17:10:11.948Z,3.87
2019-05-06T17:12:40.612Z,6.00
2019-05-06T17:15:10.019Z,8.80
2019-05-06T17:17:43.436Z,7.53
2019-05-06T17:20:09.160Z,3.30
2019-05-06T17:22:37.982Z,6.37
2019-05-06T17:25:07.024Z,6.57
2019-05-06T17:27:37.240Z,7.73
2019-05-06T17:30:12.735Z,6.70
2019-05-06T17:32:49.020Z,5.20
2019-05-06T17:35:17.666Z,4.87
2019-05-06T17:37:52.713Z,7.77
2019-05-06T17:40:23.083Z,3.43
2019-05-06T17:42:53.319Z,5.23
2019-05-06T17:45:40.371Z,22.50
2019-05-06T17:48:12.764Z,9.77
2019-05-06T17:50:42.007Z,8.30
2019-05-06T17:53:12.300Z,11.20
2019-05-06T17:55:43.164Z,6.37
2019-05-06T17:58:13.030Z,8.47
2019-05-06T18:00:42.953Z,8.40
2019-05-06T18:03:11.730Z,5.60
2019-05-06T18:05:42.140Z,5.97
2019-05-06T18:08:12.858Z,8.80
2019-05-06T18:10:42.643Z,8.83
2019-05-06T18:13:12.517Z,6.10
2019-05-06T18:15:43.114Z,5.67
2019-05-06T18:18:12.999Z,8.33
2019-05-06T18:20:42.687Z,6.67
2019-05-06T18:23:12.916Z,14.20
2019-05-06T18:25:43.108Z,13.32
2019-05-06T18:28:12.347Z,5.30
2019-05-06T18:30:41.116Z,7.47
2019-05-06T18:33:09.739Z,7.90
2019-05-06T18:35:38.401Z,11.40
2019-05-06T18:38:07.102Z,7.87
2019-05-06T18:40:35.731Z,6.77
2019-05-06T18:43:04.365Z,11.43
2019-05-06T18:45:33.908Z,7.47
2019-05-06T18:48:02.854Z,8.33
2019-05-06T18:50:32.119Z,13.17
2019-05-06T18:53:02.465Z,8.17
2019-05-06T18:55:33.088Z,8.63
2019-05-06T18:58:02.349Z,8.63
2019-05-06T19:00:32.047Z,9.37
2019-05-06T19:03:02.654Z,5.53
2019-05-06T19:05:33.055Z,15.27
2019-05-06T19:08:03.614Z,8.67
2019-05-06T19:10:33.901Z,10.30
2019-05-06T19:13:02.689Z,8.00
2019-05-06T19:15:33.193Z,5.43
2019-05-06T19:18:02.259Z,10.95
2019-05-06T19:20:33.849Z,10.57
2019-05-06T19:23:02.328Z,10.30
2019-05-06T19:25:33.934Z,11.17
2019-05-06T19:28:02.235Z,15.50
2019-05-06T19:30:32.041Z,14.40
2019-05-06T19:33:03.049Z,13.00
2019-05-06T19:35:34.205Z,12.80
2019-05-06T19:38:04.781Z,11.50
2019-05-06T19:40:33.184Z,10.83
2019-05-06T19:43:03.002Z,16.03
2019-05-06T19:45:34.385Z,16.70
2019-05-06T19:48:02.953Z,18.50
2019-05-06T19:50:32.972Z,16.93
2019-05-06T19:53:01.726Z,17.57
2019-05-06T19:55:30.361Z,17.63
2019-05-06T19:57:59.681Z,21.37
2019-05-06T20:00:28.391Z,16.30
2019-05-06T20:02:56.959Z,22.03
2019-05-06T20:05:33.024Z,20.03
2019-05-06T20:08:09.275Z,16.17
2019-05-06T20:10:39.590Z,25.83
2019-05-06T20:13:08.275Z,20.73
2019-05-06T20:15:38.299Z,16.27
2019-05-06T20:18:08.230Z,14.50
2019-05-06T20:20:37.273Z,16.20
2019-05-06T20:23:06.341Z,21.17
2019-05-06T20:25:37.130Z,18.13
2019-05-06T20:28:05.558Z,20.00
2019-05-06T20:30:34.225Z,17.67
2019-05-06T20:33:02.790Z,26.23
2019-05-06T20:35:32.281Z,26.40
2019-05-06T20:38:02.754Z,22.63
2019-05-06T20:40:32.702Z,25.90
2019-05-06T20:43:14.041Z,23.10
2019-05-06T20:45:35.066Z,27.90
2019-05-06T20:48:03.215Z,28.33
2019-05-06T20:50:32.356Z,32.23
2019-05-06T20:53:01.180Z,34.67
2019-05-06T20:55:33.265Z,31.67
2019-05-06T20:58:02.532Z,34.17
2019-05-06T21:00:33.286Z,30.60
2019-05-06T21:03:00.995Z,31.17
2019-05-06T21:05:29.614Z,28.10
2019-05-06T21:07:58.286Z,32.33
2019-05-06T21:10:27.032Z,40.33
2019-05-06T21:12:55.599Z,36.97
2019-05-06T21:15:24.226Z,30.27
2019-05-06T21:17:52.870Z,32.30
2019-05-06T21:20:21.512Z,29.67
2019-05-06T21:22:52.633Z,31.13
2019-05-06T21:25:22.494Z,36.97
2019-05-06T21:27:53.071Z,37.57
2019-05-06T21:30:21.114Z,33.53
2019-05-06T21:32:51.934Z,37.30
2019-05-06T21:35:22.230Z,39.00
2019-05-06T21:37:52.831Z,35.97
2019-05-06T21:40:20.996Z,35.60
2019-05-06T21:42:49.632Z,36.47
2019-05-06T21:45:19.065Z,39.13
2019-05-06T21:47:47.709Z,40.37
2019-05-06T21:50:16.346Z,36.37
2019-05-06T21:52:44.991Z,33.77
2019-05-06T21:55:15.564Z,36.63
2019-05-06T21:57:44.266Z,41.13
2019-05-06T22:00:17.005Z,36.07
2019-05-06T22:02:44.636Z,35.20
2019-05-06T22:05:13.537Z,34.47
2019-05-06T22:07:43.393Z,37.50
2019-05-06T22:10:13.270Z,36.70
2019-05-06T22:12:43.446Z,33.83
2019-05-06T22:15:12.392Z,30.87
2019-05-06T22:17:42.927Z,31.50
2019-05-06T22:20:11.541Z,35.37
2019-05-06T22:22:42.573Z,28.60
2019-05-06T22:25:12.557Z,26.37
2019-05-06T22:27:42.400Z,31.33
2019-05-06T22:30:11.698Z,31.73
2019-05-06T22:32:46.561Z,35.47
2019-05-06T22:35:17.063Z,29.00
2019-05-06T22:37:45.699Z,36.50
2019-05-06T22:40:14.440Z,31.77
2019-05-06T22:42:43.287Z,33.23
2019-05-06T22:45:12.553Z,32.43
2019-05-06T22:47:42.154Z,30.30
2019-05-06T22:50:13.086Z,26.87
2019-05-06T22:52:42.262Z,25.00
2019-05-06T22:55:12.965Z,27.33
2019-05-06T22:57:42.349Z,21.27
2019-05-06T23:00:15.225Z,28.33
2019-05-06T23:02:52.830Z,32.43
2019-05-06T23:05:23.124Z,28.30
2019-05-06T23:07:53.234Z,21.53
2019-05-06T23:10:24.560Z,19.93
2019-05-06T23:12:52.479Z,27.77
2019-05-06T23:15:21.129Z,22.93
2019-05-06T23:17:49.779Z,18.97
2019-05-06T23:20:18.404Z,17.93
2019-05-06T23:22:46.964Z,22.13
2019-05-06T23:25:15.596Z,20.23
2019-05-06T23:27:44.318Z,19.00
2019-05-06T23:30:12.958Z,18.53
2019-05-06T23:32:42.257Z,18.77
2019-05-06T23:35:12.885Z,18.20
2019-05-06T23:38:17.760Z,17.30
2019-05-06T23:41:22.516Z,14.00
2019-05-06T23:44:27.330Z,18.97
2019-05-06T23:47:34.081Z,13.67
2019-05-06T23:50:39.512Z,25.10
2019-05-06T23:53:44.451Z,15.07
2019-05-06T23:56:45.786Z,14.20
2019-05-06T23:59:17.210Z,20.40
